Time;durP1;ratioP1;P1;durP2;ratioP2;P2;SDS_P1;SDS_P2;PMS_P1;PMS_P2;Temp;Humidity;BMP_temperature;BMP_pressure;BME280_temperature;BME280_humidity;BME280_pressure;Samples;Min_cycle;Max_cycle;Signal;HPM_P1;HPM_P2
2022/05/16 00:00:37;;;;;;;1.80;1.47;;;24.80;54.80;;;;;;5104359;28;20223;-88
2022/05/16 00:03:05;;;;;;;1.70;1.60;;;24.90;54.90;;;;;;5104666;28;20463;-88
2022/05/16 00:05:31;;;;;;;1.47;1.30;;;24.90;55.00;;;;;;5104695;28;20416;-88
2022/05/16 00:07:57;;;;;;;1.53;1.40;;;24.90;54.90;;;;;;5092031;28;20417;-88
2022/05/16 00:10:24;;;;;;;1.60;1.30;;;24.90;54.90;;;;;;5085854;28;20408;-88
2022/05/16 00:12:51;;;;;;;2.10;1.83;;;24.90;54.90;;;;;;5084612;28;20926;-87
2022/05/16 00:15:19;;;;;;;1.63;1.53;;;24.90;54.90;;;;;;5084222;28;20420;-87
2022/05/16 00:21:23;;;;;;;1.67;1.57;;;24.90;54.90;;;;;;5089434;28;20414;-87
2022/05/16 00:23:49;;;;;;;1.40;1.30;;;24.90;54.90;;;;;;5085697;28;20464;-87
2022/05/16 00:29:37;;;;;;;1.57;1.47;;;24.90;55.00;;;;;;5103282;28;20288;-88
2022/05/16 00:32:04;;;;;;;1.60;1.50;;;24.80;54.90;;;;;;5085810;28;20944;-88
2022/05/16 00:34:30;;;;;;;1.60;1.50;;;24.80;54.90;;;;;;5085371;28;20428;-88
2022/05/16 00:36:56;;;;;;;1.67;1.57;;;24.80;54.90;;;;;;5102401;28;20453;-87
2022/05/16 00:39:22;;;;;;;1.30;1.20;;;24.80;54.90;;;;;;5103076;28;20419;-88
2022/05/16 00:41:49;;;;;;;1.70;1.40;;;24.90;55.00;;;;;;5094817;28;20190;-88
2022/05/16 00:44:19;;;;;;;1.73;1.63;;;24.90;55.00;;;;;;5082595;28;20205;-88
2022/05/16 00:46:47;;;;;;;1.40;1.30;;;24.90;54.90;;;;;;5065657;28;20424;-88
2022/05/16 00:49:38;;;;;;;1.50;1.40;;;24.90;54.90;;;;;;5082417;28;20409;-88
2022/05/16 00:52:08;;;;;;;1.50;1.40;;;24.90;55.00;;;;;;5078233;28;20416;-88
2022/05/16 00:55:02;;;;;;;1.60;1.50;;;24.90;54.90;;;;;;5083254;28;20475;-88
2022/05/16 00:57:50;;;;;;;1.40;1.30;;;24.90;54.90;;;;;;5080041;28;20440;-88
2022/05/16 01:00:18;;;;;;;1.73;1.50;;;24.90;54.90;;;;;;5084485;28;20472;-88
2022/05/16 01:05:32;;;;;;;2.17;1.30;;;24.90;55.00;;;;;;5084473;28;20404;-88
2022/05/16 01:08:06;;;;;;;1.60;1.30;;;24.90;54.90;;;;;;5084706;28;20431;-88
2022/05/16 01:10:32;;;;;;;1.27;1.17;;;24.90;54.90;;;;;;5084370;28;20411;-87
2022/05/16 01:12:58;;;;;;;1.40;1.20;;;24.90;54.90;;;;;;5085603;28;20412;-89
2022/05/16 01:15:27;;;;;;;1.50;1.40;;;24.90;54.90;;;;;;5086042;28;20434;-90
2022/05/16 01:17:52;;;;;;;2.60;1.43;;;24.90;54.90;;;;;;5085304;28;20204;-89
2022/05/16 01:20:19;;;;;;;1.70;1.60;;;24.90;54.90;;;;;;5085978;28;20420;-90
2022/05/16 01:22:52;;;;;;;1.83;1.20;;;24.90;54.90;;;;;;5085768;28;20543;-90
2022/05/16 01:25:29;;;;;;;1.20;1.10;;;24.90;54.90;;;;;;5087208;28;20460;-90
2022/05/16 01:27:58;;;;;;;2.13;1.70;;;24.90;54.90;;;;;;5086057;28;20791;-90
2022/05/16 01:30:47;;;;;;;1.70;1.40;;;24.90;54.80;;;;;;5085593;28;20442;-89
2022/05/16 01:33:17;;;;;;;1.63;1.30;;;24.90;54.80;;;;;;5086292;28;20405;-89
2022/05/16 01:35:44;;;;;;;1.70;1.47;;;24.90;54.80;;;;;;5085495;28;20420;-90
2022/05/16 01:38:21;;;;;;;1.33;1.20;;;24.90;54.90;;;;;;5084901;28;20425;-89
2022/05/16 01:40:56;;;;;;;1.40;1.27;;;24.90;54.90;;;;;;5085164;28;20507;-90
2022/05/16 01:43:24;;;;;;;1.80;1.63;;;24.90;54.90;;;;;;5084942;28;20456;-90
2022/05/16 01:45:52;;;;;;;1.40;1.10;;;24.90;54.90;;;;;;5085989;28;20408;-89
2022/05/16 01:48:20;;;;;;;1.50;1.40;;;24.90;54.90;;;;;;5085238;28;20432;-90
2022/05/16 01:50:47;;;;;;;1.50;1.30;;;24.90;55.00;;;;;;5085283;28;20413;-89
2022/05/16 01:53:14;;;;;;;1.40;1.30;;;24.90;54.90;;;;;;5086219;28;20466;-88
2022/05/16 01:55:41;;;;;;;1.53;1.43;;;24.90;54.90;;;;;;5086346;28;20439;-88
2022/05/16 01:58:08;;;;;;;1.60;1.40;;;24.90;54.90;;;;;;5086384;28;20500;-88
2022/05/16 02:00:34;;;;;;;3.20;1.23;;;24.90;54.90;;;;;;5085469;28;20210;-88
2022/05/16 02:03:01;;;;;;;1.63;1.30;;;24.90;54.90;;;;;;5086016;28;20455;-88
2022/05/16 02:05:27;;;;;;;1.43;1.30;;;24.90;54.90;;;;;;5084969;28;20421;-89
2022/05/16 02:07:54;;;;;;;1.50;1.27;;;24.90;54.90;;;;;;5084943;28;20796;-88
2022/05/16 02:10:22;;;;;;;1.50;1.40;;;24.90;54.90;;;;;;5084611;28;20482;-89
2022/05/16 02:12:49;;;;;;;1.50;1.33;;;24.90;54.90;;;;;;5085918;28;20462;-88
2022/05/16 02:15:19;;;;;;;1.43;1.30;;;24.90;54.90;;;;;;5085162;28;20477;-88
2022/05/16 02:17:45;;;;;;;1.30;1.13;;;24.90;54.90;;;;;;5084325;28;20440;-88
2022/05/16 02:20:12;;;;;;;1.20;1.10;;;24.90;54.90;;;;;;5085075;28;20428;-88
2022/05/16 02:25:22;;;;;;;1.73;1.27;;;24.90;54.90;;;;;;5085825;28;20457;-88
2022/05/16 02:27:49;;;;;;;1.67;1.40;;;24.90;54.90;;;;;;5084908;28;20420;-89
2022/05/16 02:30:16;;;;;;;1.27;1.17;;;24.90;54.90;;;;;;5085071;28;20197;-88
2022/05/16 02:32:42;;;;;;;1.43;1.17;;;24.90;54.90;;;;;;5085206;28;20429;-89
2022/05/16 02:35:11;;;;;;;1.40;1.10;;;24.90;54.90;;;;;;5084834;28;20440;-89
2022/05/16 02:37:37;;;;;;;1.50;1.40;;;24.90;54.90;;;;;;5084682;28;20640;-88
2022/05/16 02:40:04;;;;;;;2.10;1.57;;;24.90;54.90;;;;;;5084630;28;20419;-88
2022/05/16 02:42:31;;;;;;;2.17;1.50;;;24.90;55.40;;;;;;5085231;28;20413;-89
2022/05/16 02:44:57;;;;;;;1.70;1.30;;;24.90;54.90;;;;;;5072907;28;20430;-88
2022/05/16 02:47:23;;;;;;;1.37;1.27;;;24.90;54.90;;;;;;5065873;28;20427;-88
2022/05/16 02:49:50;;;;;;;1.27;1.17;;;24.90;54.90;;;;;;5064121;28;20214;-89
2022/05/16 02:52:16;;;;;;;1.40;1.20;;;24.90;54.80;;;;;;5064598;28;20464;-88
2022/05/16 02:54:42;;;;;;;1.10;1.00;;;24.90;54.80;;;;;;5064102;28;20466;-89
2022/05/16 02:57:08;;;;;;;1.43;1.33;;;24.90;54.80;;;;;;5066741;28;20524;-89
2022/05/16 02:59:35;;;;;;;1.50;1.33;;;24.90;54.80;;;;;;5069674;28;20420;-88
2022/05/16 03:02:03;;;;;;;1.60;1.20;;;24.90;54.80;;;;;;5067729;28;20424;-88
2022/05/16 03:04:29;;;;;;;1.37;1.27;;;24.90;54.80;;;;;;5067399;28;20468;-88
2022/05/16 03:06:55;;;;;;;1.57;1.17;;;25.00;54.90;;;;;;5086145;28;20442;-89
2022/05/16 03:09:25;;;;;;;2.00;1.47;;;24.90;54.80;;;;;;5088328;28;20413;-88
2022/05/16 03:11:52;;;;;;;1.60;1.30;;;24.90;54.80;;;;;;5087930;28;20962;-89
2022/05/16 03:14:18;;;;;;;1.43;1.33;;;24.90;54.80;;;;;;5087692;28;20408;-88
2022/05/16 03:16:45;;;;;;;1.50;1.10;;;24.90;54.80;;;;;;5089966;28;20420;-88
2022/05/16 03:19:11;;;;;;;1.40;1.20;;;25.00;54.90;;;;;;5109043;28;20425;-88
2022/05/16 03:21:37;;;;;;;1.20;1.10;;;25.00;54.80;;;;;;5108111;28;20479;-89
2022/05/16 03:24:04;;;;;;;2.13;1.37;;;25.00;54.80;;;;;;5098993;28;20969;-88
2022/05/16 03:26:29;;;;;;;1.30;1.20;;;25.00;54.80;;;;;;5089268;28;20261;-89
2022/05/16 03:28:55;;;;;;;1.50;1.03;;;25.00;54.80;;;;;;5092616;28;20432;-88
2022/05/16 03:31:21;;;;;;;1.40;1.30;;;25.00;54.80;;;;;;5087330;28;20170;-89
2022/05/16 03:33:47;;;;;;;1.23;1.13;;;25.00;54.80;;;;;;5087707;28;20189;-88
2022/05/16 03:36:13;;;;;;;1.40;1.30;;;25.00;54.80;;;;;;5088425;28;20196;-89
2022/05/16 03:41:23;;;;;;;1.40;1.30;;;25.00;54.80;;;;;;5088718;28;20388;-89
2022/05/16 03:43:50;;;;;;;1.20;1.10;;;25.00;54.80;;;;;;5088050;28;20455;-89
2022/05/16 03:46:16;;;;;;;1.20;1.10;;;25.00;54.80;;;;;;5086935;28;20422;-88
2022/05/16 03:48:42;;;;;;;1.20;1.00;;;25.00;54.80;;;;;;5087615;28;20783;-88
2022/05/16 03:51:10;;;;;;;1.30;1.20;;;25.00;54.80;;;;;;5087901;28;20408;-89
2022/05/16 03:53:43;;;;;;;1.57;1.03;;;25.00;54.80;;;;;;5086846;28;20181;-88
2022/05/16 03:56:08;;;;;;;1.20;1.10;;;25.00;54.80;;;;;;5086708;28;20449;-88
2022/05/16 03:58:34;;;;;;;1.17;1.07;;;25.00;54.80;;;;;;5087456;28;20489;-88
2022/05/16 04:01:00;;;;;;;1.23;1.13;;;25.00;54.80;;;;;;5087043;28;20182;-88
2022/05/16 04:03:27;;;;;;;1.10;0.93;;;25.00;54.80;;;;;;5088402;28;20198;-88
2022/05/16 04:05:53;;;;;;;1.20;1.10;;;25.00;54.80;;;;;;5086725;28;20199;-88
2022/05/16 04:08:18;;;;;;;1.33;1.23;;;25.00;54.80;;;;;;5090764;28;20456;-89
2022/05/16 04:13:59;;;;;;;1.40;1.17;;;25.00;54.80;;;;;;5105616;28;20524;-89
2022/05/16 04:16:26;;;;;;;1.53;1.30;;;25.00;54.80;;;;;;5106254;28;20411;-89
2022/05/16 04:18:52;;;;;;;1.00;0.90;;;25.00;54.80;;;;;;5104949;28;20177;-89
2022/05/16 04:21:18;;;;;;;1.20;1.10;;;25.00;54.80;;;;;;5099718;28;20443;-89
2022/05/16 04:23:43;;;;;;;1.53;1.43;;;25.00;54.80;;;;;;5090649;28;20198;-89
2022/05/16 04:27:02;;;;;;;1.20;1.00;;;25.00;54.80;;;;;;5090482;28;20209;-88
2022/05/16 04:29:28;;;;;;;1.50;1.20;;;25.00;54.80;;;;;;5082755;28;20178;-89
2022/05/16 04:31:54;;;;;;;1.20;1.03;;;25.00;54.80;;;;;;5086293;28;20492;-89
2022/05/16 04:34:19;;;;;;;1.30;1.20;;;25.00;54.80;;;;;;5087158;28;20239;-89
2022/05/16 04:36:45;;;;;;;1.13;1.03;;;25.00;54.80;;;;;;5086398;28;20186;-89
2022/05/16 04:39:11;;;;;;;1.10;0.93;;;25.00;54.80;;;;;;5085467;28;20208;-90
2022/05/16 04:44:22;;;;;;;2.13;1.20;;;25.00;54.90;;;;;;5087463;28;20200;-90
2022/05/16 04:46:48;;;;;;;1.27;1.17;;;25.00;54.90;;;;;;5085898;28;20456;-89
2022/05/16 04:52:36;;;;;;;1.50;1.20;;;25.00;54.90;;;;;;5086941;28;20162;-90
2022/05/16 04:58:26;;;;;;;1.20;1.10;;;25.00;54.90;;;;;;5086285;28;20192;-90
2022/05/16 05:00:52;;;;;;;1.73;1.33;;;25.00;55.00;;;;;;5094201;28;20418;-89
2022/05/16 05:03:18;;;;;;;1.20;1.10;;;25.00;54.90;;;;;;5105819;28;20491;-89
2022/05/16 05:05:44;;;;;;;1.20;1.10;;;25.00;54.90;;;;;;5100508;28;20170;-88
2022/05/16 05:14:32;;;;;;;1.20;1.00;;;25.10;54.90;;;;;;5085852;28;20412;-90
2022/05/16 05:16:59;;;;;;;1.30;1.20;;;25.10;54.90;;;;;;5085952;28;20407;-90
2022/05/16 05:19:25;;;;;;;1.30;1.20;;;25.10;54.90;;;;;;5085416;28;20419;-90
2022/05/16 05:21:53;;;;;;;1.20;1.07;;;25.10;54.90;;;;;;5086093;28;20397;-90
2022/05/16 05:24:19;;;;;;;1.27;1.17;;;25.10;54.90;;;;;;5085218;28;20456;-90
2022/05/16 05:26:47;;;;;;;1.23;0.93;;;25.20;54.90;;;;;;5086394;28;20812;-90
2022/05/16 05:29:20;;;;;;;1.27;1.07;;;25.20;54.90;;;;;;5084896;28;20187;-91
2022/05/16 05:31:46;;;;;;;1.03;0.90;;;25.20;54.90;;;;;;5073706;28;20474;-90
2022/05/16 05:34:12;;;;;;;1.17;1.03;;;25.20;54.90;;;;;;5049409;28;20413;-90
2022/05/16 05:36:43;;;;;;;1.10;0.87;;;25.20;54.90;;;;;;5064985;28;20485;-91
2022/05/16 05:39:13;;;;;;;1.20;1.03;;;25.20;54.90;;;;;;5077631;28;20428;-89
2022/05/16 05:41:39;;;;;;;1.20;1.10;;;25.20;54.80;;;;;;5064954;28;20425;-90
2022/05/16 05:44:05;;;;;;;1.00;0.90;;;25.20;54.80;;;;;;5065335;28;20452;-90
2022/05/16 05:46:36;;;;;;;1.20;1.10;;;25.20;54.80;;;;;;5065720;28;20422;-91
2022/05/16 05:49:03;;;;;;;1.27;1.17;;;25.20;54.80;;;;;;5065620;28;20167;-91
2022/05/16 05:51:29;;;;;;;1.37;1.20;;;25.20;54.80;;;;;;5063969;28;20424;-90
2022/05/16 05:53:54;;;;;;;1.13;1.00;;;25.30;54.90;;;;;;5064672;28;20425;-90
2022/05/16 05:56:20;;;;;;;1.10;1.00;;;25.20;54.80;;;;;;5074015;28;20242;-89
2022/05/16 05:58:46;;;;;;;1.43;1.20;;;25.30;54.90;;;;;;5081868;28;20195;-89
2022/05/16 06:01:12;;;;;;;1.10;1.00;;;25.30;54.90;;;;;;5070292;28;20174;-89
2022/05/16 06:03:37;;;;;;;1.13;0.90;;;25.30;54.90;;;;;;5085694;28;20198;-89
2022/05/16 06:06:04;;;;;;;1.17;1.07;;;25.30;54.90;;;;;;5085694;28;20170;-89
2022/05/16 06:08:30;;;;;;;1.30;1.00;;;25.20;54.90;;;;;;5090967;28;20167;-89
2022/05/16 06:10:56;;;;;;;1.30;1.10;;;25.30;54.90;;;;;;5104289;28;20415;-89
2022/05/16 06:13:22;;;;;;;1.00;0.90;;;25.30;54.90;;;;;;5104528;28;20180;-89
2022/05/16 06:15:47;;;;;;;1.33;1.10;;;25.30;54.90;;;;;;5088492;28;20466;-88
2022/05/16 06:18:13;;;;;;;1.23;1.13;;;25.30;54.90;;;;;;5085308;28;20416;-90
2022/05/16 06:20:41;;;;;;;1.00;0.90;;;25.30;54.90;;;;;;5091927;28;20309;-90
2022/05/16 06:23:07;;;;;;;1.20;1.00;;;25.30;54.90;;;;;;5106221;28;20189;-90
2022/05/16 06:25:39;;;;;;;1.03;0.90;;;25.30;54.90;;;;;;5106413;28;20399;-89
2022/05/16 06:28:25;;;;;;;1.23;1.03;;;25.30;54.90;;;;;;5104565;28;20431;-91
2022/05/16 06:30:52;;;;;;;1.00;0.87;;;25.30;54.90;;;;;;5107574;28;20445;-88
2022/05/16 06:33:21;;;;;;;1.30;1.10;;;25.30;54.90;;;;;;5110003;28;20490;-88
2022/05/16 06:35:48;;;;;;;1.30;1.20;;;25.30;54.90;;;;;;5108591;28;20425;-88
2022/05/16 06:38:18;;;;;;;1.30;1.20;;;25.30;54.90;;;;;;5110264;28;20404;-89
2022/05/16 06:40:46;;;;;;;1.13;1.03;;;25.30;54.90;;;;;;5109295;28;20411;-89
2022/05/16 06:43:13;;;;;;;1.30;1.03;;;25.30;54.90;;;;;;5109393;28;20492;-89
2022/05/16 06:45:39;;;;;;;1.23;0.97;;;25.30;54.90;;;;;;5109681;28;20400;-89
2022/05/16 06:48:05;;;;;;;1.40;1.20;;;25.30;54.90;;;;;;5109786;28;20404;-89
2022/05/16 06:50:32;;;;;;;1.20;0.90;;;25.30;54.90;;;;;;5110086;28;20833;-89
2022/05/16 06:52:59;;;;;;;1.20;1.00;;;25.30;54.90;;;;;;5110187;28;20415;-89
2022/05/16 06:55:25;;;;;;;1.30;1.10;;;25.30;54.90;;;;;;5109397;28;20408;-89
2022/05/16 06:57:51;;;;;;;1.10;0.90;;;25.30;54.90;;;;;;5107432;28;20427;-86
2022/05/16 07:00:17;;;;;;;1.20;1.10;;;25.30;54.90;;;;;;5108230;28;20534;-86
2022/05/16 07:02:43;;;;;;;1.17;1.07;;;25.30;54.90;;;;;;5107781;28;20859;-87
2022/05/16 07:08:37;;;;;;;1.20;1.10;;;25.30;54.90;;;;;;5109382;28;20375;-87
2022/05/16 07:11:22;;;;;;;1.37;1.10;;;25.30;54.90;;;;;;5106466;28;20421;-87
2022/05/16 07:13:48;;;;;;;1.20;0.97;;;25.30;54.90;;;;;;5108084;28;20893;-87
2022/05/16 07:16:13;;;;;;;1.10;1.00;;;25.30;55.00;;;;;;5107411;28;20933;-90
2022/05/16 07:18:39;;;;;;;1.20;1.00;;;25.30;54.90;;;;;;5107345;28;20223;-90
2022/05/16 07:21:06;;;;;;;1.00;0.80;;;25.30;54.90;;;;;;5108027;28;20261;-90
2022/05/16 07:23:32;;;;;;;1.00;0.87;;;25.30;54.90;;;;;;5106861;28;20254;-89
2022/05/16 07:28:42;;;;;;;0.93;0.83;;;25.30;54.90;;;;;;5109091;28;20184;-90
2022/05/16 07:31:08;;;;;;;1.10;0.90;;;25.30;54.90;;;;;;5109731;28;20503;-90
2022/05/16 07:33:34;;;;;;;1.10;1.00;;;25.30;54.90;;;;;;5108693;28;20173;-90
2022/05/16 07:36:01;;;;;;;1.00;0.80;;;25.30;54.90;;;;;;5108511;28;20412;-90
2022/05/16 07:38:26;;;;;;;1.20;1.03;;;25.30;54.90;;;;;;5105906;28;20425;-89
2022/05/16 07:40:56;;;;;;;1.10;1.00;;;25.30;54.90;;;;;;5087172;28;20495;-89
2022/05/16 07:43:24;;;;;;;1.07;0.97;;;25.30;54.90;;;;;;5086855;28;20467;-89
2022/05/16 07:45:50;;;;;;;1.80;1.33;;;25.30;54.90;;;;;;5088848;28;20411;-89
2022/05/16 07:48:19;;;;;;;1.30;1.17;;;25.30;54.90;;;;;;5086766;28;20449;-89
2022/05/16 07:50:45;;;;;;;1.00;0.90;;;25.30;54.90;;;;;;5087069;28;20209;-89
2022/05/16 07:53:13;;;;;;;1.00;0.90;;;25.30;54.90;;;;;;5086669;28;20424;-90
2022/05/16 07:55:43;;;;;;;1.27;1.00;;;25.30;54.90;;;;;;5085868;28;20431;-90
2022/05/16 07:58:09;;;;;;;1.00;0.90;;;25.30;54.90;;;;;;5086279;28;20432;-89
2022/05/16 08:03:57;;;;;;;1.60;1.17;;;25.30;54.90;;;;;;5087256;28;20455;-89
2022/05/16 08:07:12;;;;;;;1.00;0.90;;;25.30;54.90;;;;;;5085885;28;20954;-89
2022/05/16 08:12:31;;;;;;;1.20;0.83;;;25.30;55.00;;;;;;5086804;28;20392;-89
2022/05/16 08:14:57;;;;;;;1.03;0.93;;;25.30;55.00;;;;;;5086380;28;20469;-89
2022/05/16 08:17:23;;;;;;;1.10;0.90;;;25.30;55.00;;;;;;5086185;28;20424;-89
2022/05/16 08:19:50;;;;;;;0.90;0.80;;;25.30;55.00;;;;;;5085875;28;20433;-90
2022/05/16 08:22:17;;;;;;;1.00;0.80;;;25.30;55.00;;;;;;5085377;28;20428;-89
2022/05/16 08:24:43;;;;;;;1.10;0.90;;;25.30;54.90;;;;;;5086681;28;20448;-89
2022/05/16 08:27:09;;;;;;;1.40;0.87;;;25.30;54.90;;;;;;5087706;28;20442;-90
2022/05/16 08:29:35;;;;;;;1.00;0.80;;;25.30;54.90;;;;;;5086891;28;20440;-89
2022/05/16 08:32:03;;;;;;;1.07;0.97;;;25.30;54.90;;;;;;5087046;28;20171;-89
2022/05/16 08:34:29;;;;;;;0.90;0.80;;;25.30;54.90;;;;;;5086383;28;20186;-89
2022/05/16 08:40:03;;;;;;;1.60;1.10;;;25.30;54.90;;;;;;5086425;28;20432;-90
2022/05/16 08:43:03;;;;;;;1.30;1.00;;;25.30;54.90;;;;;;5086501;28;20421;-90
2022/05/16 08:45:41;;;;;;;1.13;0.90;;;25.30;54.90;;;;;;5083213;28;20432;-91
2022/05/16 08:48:28;;;;;;;1.03;0.93;;;25.30;54.90;;;;;;5086587;28;20458;-91
2022/05/16 08:51:23;;;;;;;1.00;0.80;;;25.30;54.90;;;;;;5084321;28;20778;-90
2022/05/16 08:54:18;;;;;;;1.10;1.00;;;25.30;54.90;;;;;;5080610;28;20450;-91
2022/05/16 08:56:46;;;;;;;1.10;1.00;;;25.30;54.90;;;;;;5083825;28;20523;-91
2022/05/16 08:59:23;;;;;;;1.40;0.90;;;25.30;54.90;;;;;;5084160;28;20443;-90
2022/05/16 09:01:51;;;;;;;1.00;0.87;;;25.30;54.90;;;;;;5085280;28;20397;-91
2022/05/16 09:04:24;;;;;;;1.00;0.90;;;25.30;54.90;;;;;;5085722;28;20463;-90
2022/05/16 09:07:09;;;;;;;0.90;0.70;;;25.30;54.90;;;;;;5084289;28;20417;-90
2022/05/16 09:09:43;;;;;;;1.00;0.90;;;25.30;54.90;;;;;;5085353;28;20397;-90
2022/05/16 09:12:42;;;;;;;1.00;0.90;;;25.30;54.90;;;;;;5085585;28;20416;-91
2022/05/16 09:15:30;;;;;;;1.30;1.13;;;25.30;54.90;;;;;;5086342;28;20432;-90
2022/05/16 09:18:08;;;;;;;1.00;0.83;;;25.30;54.90;;;;;;5085014;28;20421;-90
2022/05/16 09:20:58;;;;;;;1.07;0.90;;;25.30;54.90;;;;;;5083903;28;20416;-89
2022/05/16 09:23:42;;;;;;;1.00;0.90;;;25.30;54.90;;;;;;5085107;28;20451;-90
2022/05/16 09:26:26;;;;;;;1.33;1.10;;;25.30;54.90;;;;;;5085298;28;20425;-90
2022/05/16 09:29:00;;;;;;;1.00;0.80;;;25.30;54.90;;;;;;5085070;28;20442;-90
2022/05/16 09:31:39;;;;;;;1.00;0.80;;;25.30;54.90;;;;;;5085915;28;20401;-90
2022/05/16 09:34:06;;;;;;;1.20;0.90;;;25.30;54.90;;;;;;5085556;28;20431;-90
2022/05/16 09:36:35;;;;;;;0.90;0.77;;;25.30;54.90;;;;;;5084378;28;20500;-90
2022/05/16 09:39:03;;;;;;;1.60;0.93;;;25.30;54.90;;;;;;5086024;28;20420;-90
2022/05/16 09:41:42;;;;;;;1.20;1.00;;;25.30;54.90;;;;;;5085147;28;20454;-90
2022/05/16 09:44:14;;;;;;;1.20;1.00;;;25.30;54.90;;;;;;5083530;28;20487;-90
2022/05/16 09:46:42;;;;;;;1.20;0.90;;;25.30;54.90;;;;;;5085040;28;20551;-90
2022/05/16 09:49:23;;;;;;;1.40;0.90;;;25.30;55.00;;;;;;5083774;28;20417;-89
2022/05/16 09:51:53;;;;;;;1.00;0.80;;;25.30;54.90;;;;;;5083805;28;20836;-90
2022/05/16 09:54:32;;;;;;;1.00;0.83;;;25.30;54.90;;;;;;5083722;28;20455;-90
2022/05/16 09:57:04;;;;;;;0.90;0.80;;;25.30;54.90;;;;;;5085019;28;20411;-90
2022/05/16 09:59:34;;;;;;;1.00;0.87;;;25.30;54.90;;;;;;5085476;28;20470;-91
2022/05/16 10:02:27;;;;;;;1.07;0.93;;;25.30;54.90;;;;;;5105670;28;20497;-90
2022/05/16 10:05:18;;;;;;;1.30;0.90;;;25.30;54.90;;;;;;5103864;28;20505;-90
2022/05/16 10:07:47;;;;;;;0.90;0.80;;;25.30;54.90;;;;;;5080721;28;20417;-89
2022/05/16 10:10:25;;;;;;;1.00;0.80;;;25.30;54.90;;;;;;5084077;28;20408;-90
2022/05/16 10:12:52;;;;;;;1.00;0.80;;;25.30;54.90;;;;;;5083405;28;20413;-90
2022/05/16 10:15:18;;;;;;;1.00;0.80;;;25.30;54.90;;;;;;5083105;28;20460;-91
2022/05/16 10:17:45;;;;;;;1.00;0.80;;;25.30;54.90;;;;;;5085218;28;20412;-90
2022/05/16 10:20:26;;;;;;;1.07;0.80;;;25.30;54.90;;;;;;5084696;28;20194;-90
2022/05/16 10:22:56;;;;;;;1.13;1.00;;;25.30;54.90;;;;;;5083414;28;20460;-90
2022/05/16 10:25:27;;;;;;;1.00;0.80;;;25.30;54.90;;;;;;5085492;28;20413;-89
2022/05/16 10:27:55;;;;;;;1.10;0.90;;;25.30;54.90;;;;;;5083694;28;20468;-90
2022/05/16 10:30:26;;;;;;;1.03;0.90;;;25.30;54.90;;;;;;5084445;28;20441;-89
2022/05/16 10:35:48;;;;;;;1.10;0.97;;;25.30;54.90;;;;;;5085260;28;20388;-90
2022/05/16 10:38:32;;;;;;;1.10;1.00;;;25.30;54.90;;;;;;5083561;28;20416;-90
2022/05/16 10:41:03;;;;;;;1.00;0.80;;;25.30;54.90;;;;;;5085376;28;20468;-90
2022/05/16 10:44:00;;;;;;;1.10;0.70;;;25.30;54.90;;;;;;5083244;28;21034;-88
2022/05/16 10:46:31;;;;;;;0.90;0.70;;;25.30;54.90;;;;;;5065791;28;20398;-89
2022/05/16 10:49:09;;;;;;;0.90;0.70;;;25.30;54.90;;;;;;5066638;28;20390;-89
2022/05/16 10:52:00;;;;;;;1.00;0.80;;;25.30;54.90;;;;;;5064913;28;20410;-89
2022/05/16 10:54:29;;;;;;;1.00;0.90;;;25.30;54.90;;;;;;5065512;28;20443;-88
2022/05/16 10:57:04;;;;;;;0.97;0.80;;;25.30;54.90;;;;;;5065742;28;20424;-88
2022/05/16 10:59:46;;;;;;;0.90;0.73;;;25.30;54.90;;;;;;5064934;28;20432;-88
2022/05/16 11:02:14;;;;;;;1.00;0.80;;;25.30;54.90;;;;;;5066405;28;20412;-89
2022/05/16 11:10:59;;;;;;;1.20;0.93;;;25.30;54.90;;;;;;5066441;28;20516;-88
2022/05/16 11:13:36;;;;;;;1.20;0.90;;;25.20;54.90;;;;;;5066348;28;20409;-88
2022/05/16 11:16:38;;;;;;;1.00;0.80;;;25.30;55.00;;;;;;5065585;28;20447;-88
2022/05/16 11:19:19;;;;;;;0.90;0.80;;;25.30;55.00;;;;;;5071343;28;20427;-89
2022/05/16 11:22:04;;;;;;;1.00;0.80;;;25.30;55.00;;;;;;5109153;28;20430;-87
2022/05/16 11:24:54;;;;;;;0.90;0.80;;;25.30;55.00;;;;;;5109612;28;20432;-89
2022/05/16 11:27:47;;;;;;;1.00;0.80;;;25.30;55.00;;;;;;5108446;28;20426;-89
2022/05/16 11:30:53;;;;;;;0.90;0.80;;;25.30;55.00;;;;;;5108338;28;20524;-89
2022/05/16 11:33:49;;;;;;;1.03;0.90;;;25.30;55.00;;;;;;5108441;28;20411;-89
2022/05/16 11:42:51;;;;;;;0.90;0.80;;;25.20;55.00;;;;;;5097464;28;20398;-89
2022/05/16 11:48:49;;;;;;;1.00;0.83;;;25.20;55.00;;;;;;5095364;28;20374;-88
2022/05/16 11:51:15;;;;;;;0.93;0.83;;;25.20;55.00;;;;;;5099701;28;20409;-88
2022/05/16 11:53:50;;;;;;;1.00;0.80;;;25.20;55.00;;;;;;5103173;28;20451;-88
2022/05/16 12:02:29;;;;;;;0.90;0.80;;;25.20;55.00;;;;;;5087710;28;20428;-89
2022/05/16 12:08:51;;;;;;;1.00;0.90;;;25.20;55.00;;;;;;5084344;28;20391;-89
2022/05/16 12:11:21;;;;;;;0.90;0.70;;;25.20;55.00;;;;;;5080962;28;20515;-89
2022/05/16 12:14:10;;;;;;;0.90;0.70;;;25.20;55.00;;;;;;5087978;28;20782;-89
2022/05/16 12:16:51;;;;;;;1.00;0.83;;;25.20;55.00;;;;;;5085638;28;20481;-89
2022/05/16 12:19:34;;;;;;;0.90;0.80;;;25.20;55.00;;;;;;5081155;28;20412;-89
2022/05/16 12:22:07;;;;;;;1.10;0.90;;;25.30;55.00;;;;;;5082459;28;20428;-89
2022/05/16 12:24:52;;;;;;;1.10;0.80;;;25.20;55.00;;;;;;5085937;28;20520;-89
2022/05/16 12:27:25;;;;;;;1.00;0.80;;;25.30;55.00;;;;;;5080492;28;20416;-90
2022/05/16 12:29:56;;;;;;;0.93;0.83;;;25.30;55.00;;;;;;5085125;28;20416;-89
2022/05/16 12:32:31;;;;;;;0.80;0.70;;;25.30;55.00;;;;;;5085521;28;20446;-89
2022/05/16 12:34:59;;;;;;;1.20;1.00;;;25.30;55.00;;;;;;5085952;28;20942;-89
2022/05/16 12:37:25;;;;;;;1.00;0.90;;;25.30;55.00;;;;;;5085872;28;20456;-89
2022/05/16 12:40:15;;;;;;;0.90;0.70;;;25.30;55.00;;;;;;5092060;28;20754;-90
2022/05/16 12:43:20;;;;;;;1.30;0.80;;;25.30;55.00;;;;;;5090577;28;20185;-89
2022/05/16 12:46:23;;;;;;;1.00;0.80;;;25.30;55.00;;;;;;5089157;28;20417;-90
2022/05/16 12:49:20;;;;;;;0.90;0.80;;;25.30;55.00;;;;;;5087813;28;20471;-90
2022/05/16 12:52:04;;;;;;;0.80;0.70;;;25.30;55.00;;;;;;5089699;28;20416;-89
2022/05/16 12:54:48;;;;;;;0.90;0.70;;;25.30;55.00;;;;;;5083782;28;20443;-90
2022/05/16 12:57:37;;;;;;;1.43;0.70;;;25.20;55.00;;;;;;5086254;28;20465;-89
2022/05/16 13:00:12;;;;;;;0.90;0.80;;;25.30;55.00;;;;;;5086595;28;20506;-89
2022/05/16 13:03:38;;;;;;;1.03;0.77;;;25.30;55.00;;;;;;5088101;28;20416;-90
2022/05/16 13:06:25;;;;;;;0.90;0.80;;;25.30;55.00;;;;;;5047429;28;20511;-89
2022/05/16 13:08:58;;;;;;;1.13;0.90;;;25.20;54.90;;;;;;5085163;28;20429;-90
2022/05/16 13:11:34;;;;;;;1.00;0.90;;;25.30;55.00;;;;;;5086532;28;20416;-90
2022/05/16 13:14:40;;;;;;;1.07;0.87;;;25.30;55.00;;;;;;5086771;28;20416;-90
2022/05/16 13:17:15;;;;;;;1.30;1.00;;;25.30;55.00;;;;;;5077874;28;20452;-89
2022/05/16 13:19:43;;;;;;;1.00;0.90;;;25.30;55.00;;;;;;5088376;28;20544;-89
2022/05/16 13:22:17;;;;;;;0.90;0.70;;;25.30;55.00;;;;;;5088520;28;20419;-89
2022/05/16 13:24:46;;;;;;;0.93;0.83;;;25.30;55.00;;;;;;5088862;28;20528;-89
2022/05/16 13:30:08;;;;;;;1.00;0.80;;;25.30;55.00;;;;;;5088963;28;20909;-89
2022/05/16 13:32:34;;;;;;;1.23;1.00;;;25.30;55.00;;;;;;5086694;28;20409;-89
2022/05/16 13:35:09;;;;;;;0.97;0.87;;;25.30;55.00;;;;;;5088505;28;20408;-88
2022/05/16 13:37:50;;;;;;;0.90;0.80;;;25.30;55.00;;;;;;5087108;28;20503;-91
2022/05/16 13:40:24;;;;;;;1.00;0.80;;;25.30;55.00;;;;;;5085503;28;20411;-88
2022/05/16 13:42:50;;;;;;;1.10;0.90;;;25.30;55.00;;;;;;5087405;28;20409;-88
2022/05/16 13:45:22;;;;;;;0.90;0.70;;;25.30;55.00;;;;;;5087603;28;20417;-87
2022/05/16 13:47:48;;;;;;;1.10;0.90;;;25.30;55.00;;;;;;5088420;28;20913;-88
2022/05/16 13:50:25;;;;;;;1.00;0.80;;;25.30;55.00;;;;;;5089838;28;20393;-88
2022/05/16 13:52:52;;;;;;;1.10;0.80;;;25.30;55.00;;;;;;5088043;28;20185;-88
2022/05/16 13:55:19;;;;;;;1.00;0.80;;;25.30;55.00;;;;;;5088549;28;20405;-88
2022/05/16 13:57:45;;;;;;;0.90;0.77;;;25.30;55.00;;;;;;5086447;28;20435;-87
2022/05/16 14:00:36;;;;;;;1.87;1.00;;;25.30;55.00;;;;;;5089405;28;20420;-85
2022/05/16 14:03:09;;;;;;;1.00;0.90;;;25.30;55.00;;;;;;5087286;28;20198;-88
2022/05/16 14:05:35;;;;;;;0.90;0.70;;;25.30;55.00;;;;;;5088586;28;20392;-88
2022/05/16 14:08:03;;;;;;;1.00;0.90;;;25.30;55.00;;;;;;5088121;28;20412;-88
2022/05/16 14:10:32;;;;;;;1.00;0.77;;;25.30;55.00;;;;;;5088122;28;20228;-88
2022/05/16 14:13:01;;;;;;;1.50;1.10;;;25.30;55.00;;;;;;5089161;28;20400;-87
2022/05/16 14:15:56;;;;;;;1.10;0.87;;;25.30;55.00;;;;;;5087682;28;20416;-89
2022/05/16 14:18:38;;;;;;;1.20;1.10;;;25.30;55.10;;;;;;5087877;28;20447;-89
2022/05/16 14:21:27;;;;;;;1.10;0.90;;;25.30;55.20;;;;;;5087925;28;20909;-88
2022/05/16 14:23:59;;;;;;;1.00;0.90;;;25.20;55.10;;;;;;5087312;28;20444;-88
2022/05/16 14:26:39;;;;;;;1.27;0.97;;;25.20;55.20;;;;;;5088844;28;20389;-87
2022/05/16 14:29:17;;;;;;;0.90;0.73;;;25.20;55.20;;;;;;5087099;28;20405;-89
2022/05/16 14:31:46;;;;;;;0.97;0.87;;;25.20;55.30;;;;;;5088210;28;20407;-89
2022/05/16 14:34:26;;;;;;;0.93;0.83;;;25.20;55.30;;;;;;5087876;28;20825;-89